createdAt,value
2023-04-13T00:01:11.548Z,9.20
2023-04-13T00:03:39.729Z,9.20
2023-04-13T00:06:11.110Z,9.20
2023-04-13T00:08:38.641Z,9.20
2023-04-13T00:11:08.356Z,9.20
2023-04-13T00:13:41.570Z,9.20
2023-04-13T00:16:13.421Z,9.20
2023-04-13T00:18:40.307Z,9.10
2023-04-13T00:21:07.702Z,9.10
2023-04-13T00:23:36.363Z,9.10
2023-04-13T00:26:03.333Z,9.10
2023-04-13T00:28:30.279Z,9.10
2023-04-13T00:30:57.249Z,9.00
2023-04-13T00:33:24.316Z,9.00
2023-04-13T00:35:51.847Z,9.00
2023-04-13T00:38:18.661Z,9.00
2023-04-13T00:40:45.973Z,9.00
2023-04-13T00:43:12.920Z,8.90
2023-04-13T00:45:40.117Z,8.90
2023-04-13T00:48:12.475Z,9.00
2023-04-13T00:50:40.412Z,9.00
2023-04-13T00:53:10.969Z,9.00
2023-04-13T00:55:40.586Z,9.00
2023-04-13T00:58:08.159Z,8.90
2023-04-13T01:00:39.222Z,8.90
2023-04-13T01:03:06.584Z,8.90
2023-04-13T01:05:49.150Z,8.90
2023-04-13T01:08:29.667Z,8.90
2023-04-13T01:11:07.219Z,8.90
2023-04-13T01:13:52.848Z,8.80
2023-04-13T01:16:23.779Z,8.90
2023-04-13T01:18:54.183Z,8.80
2023-04-13T01:21:26.224Z,8.90
2023-04-13T01:24:17.990Z,8.90
2023-04-13T01:27:06.420Z,8.90
2023-04-13T01:29:35.269Z,8.90
2023-04-13T01:32:02.959Z,8.90
2023-04-13T01:34:30.208Z,8.90
2023-04-13T01:36:57.521Z,8.90
2023-04-13T01:39:32.141Z,8.90
2023-04-13T01:41:59.682Z,8.90
2023-04-13T01:44:32.491Z,8.90
2023-04-13T01:47:15.983Z,8.90
2023-04-13T01:49:55.236Z,8.90
2023-04-13T01:52:24.465Z,8.90
2023-04-13T01:54:52.109Z,8.90
2023-04-13T01:57:19.847Z,8.90
2023-04-13T01:59:47.041Z,8.90
2023-04-13T02:02:16.957Z,9.00
2023-04-13T02:04:43.981Z,9.00
2023-04-13T02:07:12.601Z,9.00
2023-04-13T02:09:39.743Z,9.00
2023-04-13T02:12:07.080Z,9.00
2023-04-13T02:14:33.842Z,9.00
2023-04-13T02:17:01.996Z,9.00
2023-04-13T02:19:30.711Z,9.00
2023-04-13T02:21:57.531Z,9.00
2023-04-13T02:24:24.863Z,9.00
2023-04-13T02:26:51.675Z,9.00
2023-04-13T02:29:19.932Z,9.00
2023-04-13T02:31:46.803Z,9.10
2023-04-13T02:34:13.602Z,9.00
2023-04-13T02:36:43.015Z,9.00
2023-04-13T02:39:09.823Z,9.00
2023-04-13T02:41:36.643Z,9.00
2023-04-13T02:44:03.490Z,9.00
2023-04-13T02:46:32.663Z,8.90
2023-04-13T02:49:00.134Z,9.00
2023-04-13T02:51:28.115Z,8.90
2023-04-13T02:53:57.819Z,8.90
2023-04-13T02:56:28.681Z,8.90
2023-04-13T02:58:55.770Z,8.90
2023-04-13T03:01:25.824Z,8.90
2023-04-13T03:03:52.801Z,8.90
2023-04-13T03:06:19.584Z,8.90
2023-04-13T03:08:46.424Z,8.90
2023-04-13T03:11:13.192Z,8.90
2023-04-13T03:13:39.990Z,8.90
2023-04-13T03:16:07.142Z,8.90
2023-04-13T03:18:33.897Z,8.90
2023-04-13T03:21:02.052Z,8.90
2023-04-13T03:23:29.530Z,8.90
2023-04-13T03:25:56.373Z,8.90
2023-04-13T03:28:23.905Z,8.90
2023-04-13T03:30:51.815Z,8.90
2023-04-13T03:33:18.656Z,8.90
2023-04-13T03:35:47.153Z,8.90
2023-04-13T03:38:15.971Z,9.00
2023-04-13T03:40:42.782Z,8.90
2023-04-13T03:43:10.292Z,8.90
2023-04-13T03:45:37.187Z,8.90
2023-04-13T03:48:06.114Z,8.90
2023-04-13T03:50:33.093Z,8.90
2023-04-13T03:53:01.516Z,8.90
2023-04-13T03:55:29.164Z,9.00
2023-04-13T03:57:56.070Z,8.90
2023-04-13T04:00:23.016Z,8.90
2023-04-13T04:02:50.017Z,8.90
2023-04-13T04:05:18.666Z,9.00
2023-04-13T04:07:45.540Z,9.00
2023-04-13T04:10:12.372Z,8.90
2023-04-13T04:12:39.191Z,8.90
2023-04-13T04:15:07.978Z,8.90
2023-04-13T04:17:36.064Z,8.90
2023-04-13T04:20:06.320Z,8.90
2023-04-13T04:22:38.559Z,8.90
2023-04-13T04:25:06.587Z,8.90
2023-04-13T04:27:38.404Z,8.90
2023-04-13T04:30:06.444Z,8.90
2023-04-13T04:32:37.040Z,8.90
2023-04-13T04:35:05.187Z,8.90
2023-04-13T04:37:37.829Z,8.90
2023-04-13T04:40:09.692Z,8.90
2023-04-13T04:42:40.051Z,8.90
2023-04-13T04:45:07.478Z,8.90
2023-04-13T04:47:53.583Z,8.90
2023-04-13T04:50:22.091Z,8.80
2023-04-13T04:52:48.996Z,8.80
2023-04-13T04:55:16.053Z,8.80
2023-04-13T04:57:49.448Z,8.80
2023-04-13T05:00:17.057Z,8.80
2023-04-13T05:02:45.845Z,8.80
2023-04-13T05:05:14.491Z,8.90
2023-04-13T05:07:41.313Z,8.90
2023-04-13T05:10:10.253Z,8.90
2023-04-13T05:12:37.858Z,8.90
2023-04-13T05:15:05.369Z,8.90
2023-04-13T05:17:32.765Z,8.90
2023-04-13T05:19:59.572Z,8.90
2023-04-13T05:22:28.365Z,8.90
2023-04-13T05:24:55.179Z,8.90
2023-04-13T05:27:22.144Z,8.90
2023-04-13T05:29:48.952Z,8.90
2023-04-13T05:32:15.791Z,9.00
2023-04-13T05:34:42.629Z,9.10
2023-04-13T05:37:10.626Z,9.00
2023-04-13T05:39:38.046Z,9.00
2023-04-13T05:42:04.885Z,9.00
2023-04-13T05:44:31.747Z,9.10
2023-04-13T05:47:01.475Z,9.10
2023-04-13T05:49:31.628Z,9.10
2023-04-13T05:51:58.700Z,9.20
2023-04-13T05:54:25.853Z,9.20
2023-04-13T05:56:52.650Z,9.20
2023-04-13T05:59:19.566Z,9.20
2023-04-13T06:01:46.640Z,9.30
2023-04-13T06:04:15.887Z,9.30
2023-04-13T06:06:45.650Z,9.30
2023-04-13T06:09:13.460Z,9.40
2023-04-13T06:11:40.593Z,9.50
2023-04-13T06:14:07.689Z,9.50
2023-04-13T06:16:34.600Z,9.60
2023-04-13T06:19:02.004Z,9.60
2023-04-13T06:21:30.348Z,9.70
2023-04-13T06:23:58.042Z,9.70
2023-04-13T06:26:25.974Z,9.70
2023-04-13T06:28:52.977Z,9.70
2023-04-13T06:31:21.264Z,9.70
2023-04-13T06:33:48.246Z,9.70
2023-04-13T06:36:15.104Z,9.80
2023-04-13T06:38:41.943Z,9.80
2023-04-13T06:41:08.838Z,9.90
2023-04-13T06:43:36.080Z,10.00
2023-04-13T06:46:04.592Z,10.00
2023-04-13T06:48:31.612Z,10.00
2023-04-13T06:50:59.871Z,10.10
2023-04-13T06:53:26.679Z,10.10
2023-04-13T06:55:54.529Z,10.10
2023-04-13T06:58:23.438Z,10.20
2023-04-13T07:00:50.476Z,10.20
2023-04-13T07:03:17.629Z,10.30
2023-04-13T07:05:47.463Z,10.20
2023-04-13T07:08:14.373Z,10.20
2023-04-13T07:10:41.278Z,10.30
2023-04-13T07:13:08.425Z,10.30
2023-04-13T07:15:37.870Z,10.30
2023-04-13T07:18:05.329Z,10.30
2023-04-13T07:20:32.206Z,10.30
2023-04-13T07:23:00.060Z,10.40
2023-04-13T07:25:27.289Z,10.40
2023-04-13T07:27:55.150Z,10.50
2023-04-13T07:30:22.156Z,10.60
2023-04-13T07:32:51.132Z,10.70
2023-04-13T07:35:19.537Z,10.70
2023-04-13T07:37:52.900Z,10.70
2023-04-13T07:40:20.489Z,10.80
2023-04-13T07:42:50.338Z,10.90
2023-04-13T07:45:18.242Z,11.10
2023-04-13T07:47:45.063Z,11.30
2023-04-13T07:50:12.026Z,11.60
2023-04-13T07:52:39.068Z,11.80
2023-04-13T07:55:07.553Z,12.10
2023-04-13T07:57:35.835Z,12.40
2023-04-13T08:00:07.052Z,12.50
2023-04-13T08:05:01.694Z,13.10
2023-04-13T08:07:29.954Z,13.10
2023-04-13T08:09:56.814Z,13.10
2023-04-13T08:12:23.600Z,13.00
2023-04-13T08:14:50.392Z,12.90
2023-04-13T08:17:17.254Z,12.80
2023-04-13T08:19:44.117Z,12.60
2023-04-13T08:22:12.089Z,12.60
2023-04-13T08:24:38.938Z,12.60
2023-04-13T08:27:08.445Z,12.60
2023-04-13T08:29:35.238Z,12.60
2023-04-13T08:32:02.105Z,12.60
2023-04-13T08:34:29.349Z,12.60
2023-04-13T08:37:21.472Z,12.60
2023-04-13T08:39:52.774Z,12.60
2023-04-13T08:42:23.700Z,12.50
2023-04-13T08:44:53.475Z,12.60
2023-04-13T08:47:21.471Z,12.60
2023-04-13T08:49:52.751Z,12.70
2023-04-13T08:52:23.591Z,12.70
2023-04-13T08:54:57.969Z,12.80
2023-04-13T09:00:13.647Z,12.90
2023-04-13T09:03:02.945Z,12.90
2023-04-13T09:05:49.003Z,12.80
2023-04-13T09:16:44.517Z,12.70
2023-04-13T09:19:33.332Z,12.70
2023-04-13T09:24:45.192Z,12.80
2023-04-13T09:27:24.111Z,12.90
2023-04-13T09:29:58.369Z,12.90
2023-04-13T09:32:29.434Z,12.90
2023-04-13T09:35:08.396Z,13.00
2023-04-13T09:37:37.360Z,13.00
2023-04-13T09:40:19.014Z,13.10
2023-04-13T09:43:06.403Z,13.10
2023-04-13T09:45:38.407Z,13.10
2023-04-13T09:48:18.910Z,13.10
2023-04-13T09:50:46.514Z,13.00
2023-04-13T09:53:15.223Z,12.90
2023-04-13T09:55:44.911Z,12.90
2023-04-13T09:58:18.185Z,12.90
2023-04-13T10:00:46.713Z,13.00
2023-04-13T10:03:15.589Z,13.10
2023-04-13T10:05:58.681Z,13.20
2023-04-13T10:08:37.521Z,13.30
2023-04-13T10:11:17.074Z,13.40
2023-04-13T10:13:58.697Z,13.60
2023-04-13T10:16:55.274Z,13.70
2023-04-13T10:19:33.650Z,13.90
2023-04-13T10:22:01.964Z,14.10
2023-04-13T10:24:29.350Z,14.20
2023-04-13T10:27:06.434Z,14.10
2023-04-13T10:29:38.854Z,14.00
2023-04-13T10:32:08.095Z,14.00
2023-04-13T10:34:38.458Z,13.80
2023-04-13T10:45:45.570Z,13.90
2023-04-13T10:48:33.105Z,13.90
2023-04-13T10:51:14.102Z,13.80
2023-04-13T10:53:42.295Z,13.70
2023-04-13T10:56:24.383Z,13.80
2023-04-13T10:58:58.319Z,13.80
2023-04-13T11:01:27.333Z,13.80
2023-04-13T11:04:04.486Z,13.80
2023-04-13T11:06:40.121Z,13.90
2023-04-13T11:09:09.320Z,13.90
2023-04-13T11:11:44.814Z,13.90
2023-04-13T11:14:30.298Z,13.90
2023-04-13T11:17:07.212Z,13.80
2023-04-13T11:19:51.213Z,13.70
2023-04-13T11:25:17.617Z,13.70
2023-04-13T11:30:57.997Z,13.90
2023-04-13T11:33:25.833Z,14.00
2023-04-13T11:35:56.125Z,14.10
2023-04-13T11:38:26.186Z,14.20
2023-04-13T11:41:15.732Z,14.20
2023-04-13T11:43:53.467Z,14.30
2023-04-13T11:46:25.894Z,14.40
2023-04-13T11:48:53.373Z,14.50
2023-04-13T11:51:21.201Z,14.50
2023-04-13T11:53:54.725Z,14.60
2023-04-13T11:56:21.606Z,14.70
2023-04-13T11:58:52.202Z,14.80
2023-04-13T12:01:26.301Z,14.80
2023-04-13T12:04:12.938Z,14.80
2023-04-13T12:06:49.960Z,14.90
2023-04-13T12:09:54.531Z,14.90
2023-04-13T12:17:50.080Z,15.10
2023-04-13T12:20:20.433Z,15.10
2023-04-13T12:22:57.708Z,15.20
2023-04-13T12:25:35.814Z,15.30
2023-04-13T12:28:13.035Z,15.30
2023-04-13T12:30:40.172Z,15.30
2023-04-13T12:33:08.287Z,15.30
2023-04-13T12:35:39.082Z,15.30
2023-04-13T12:38:11.483Z,15.20
2023-04-13T12:40:57.912Z,15.10
2023-04-13T12:43:29.926Z,15.20
2023-04-13T12:46:04.747Z,15.30
2023-04-13T12:51:25.452Z,15.40
2023-04-13T13:02:05.440Z,15.40
2023-04-13T13:07:36.129Z,15.30
2023-04-13T13:23:40.830Z,15.50
2023-04-13T13:29:32.337Z,15.50
2023-04-13T13:40:33.209Z,15.90
2023-04-13T13:42:59.991Z,16.00
2023-04-13T13:45:30.058Z,16.00
2023-04-13T13:47:58.432Z,16.00
2023-04-13T13:50:26.650Z,16.10
2023-04-13T13:53:02.614Z,16.10
2023-04-13T13:55:31.698Z,16.10
2023-04-13T13:57:59.407Z,16.10
2023-04-13T14:00:29.247Z,16.10
2023-04-13T14:03:01.386Z,16.10
2023-04-13T14:05:28.614Z,16.10
2023-04-13T14:08:00.794Z,16.10
2023-04-13T14:10:29.184Z,16.10
2023-04-13T14:12:58.583Z,16.10
2023-04-13T14:15:25.877Z,16.00
2023-04-13T14:18:09.094Z,16.00
2023-04-13T14:20:45.861Z,16.00
2023-04-13T14:25:59.329Z,16.10
2023-04-13T14:28:26.125Z,16.10
2023-04-13T14:30:56.354Z,16.10
2023-04-13T14:33:27.522Z,16.10
2023-04-13T14:35:59.476Z,16.10
2023-04-13T14:38:27.854Z,16.00
2023-04-13T14:43:49.894Z,16.10
2023-04-13T14:46:26.211Z,16.00
2023-04-13T14:48:53.460Z,16.00
2023-04-13T14:51:29.240Z,16.00
2023-04-13T14:54:10.162Z,16.00
2023-04-13T14:56:46.457Z,16.00
2023-04-13T14:59:19.732Z,16.00
2023-04-13T15:01:47.379Z,16.00
2023-04-13T15:04:18.192Z,16.00
2023-04-13T15:06:52.905Z,16.00
2023-04-13T15:09:25.208Z,16.00
2023-04-13T15:11:52.337Z,16.10
2023-04-13T15:14:20.376Z,16.00
2023-04-13T15:16:49.113Z,16.00
2023-04-13T15:19:17.144Z,16.00
2023-04-13T15:21:46.986Z,16.10
2023-04-13T15:24:14.189Z,16.10
2023-04-13T15:26:41.933Z,16.10
2023-04-13T15:29:11.503Z,16.10
2023-04-13T15:31:41.420Z,16.10
2023-04-13T15:37:41.276Z,16.00
2023-04-13T15:40:55.634Z,16.00
2023-04-13T15:43:22.522Z,16.00
2023-04-13T15:45:52.187Z,16.00
2023-04-13T15:48:19.733Z,15.90
2023-04-13T15:50:46.676Z,15.90
2023-04-13T15:53:13.553Z,16.00
2023-04-13T15:55:49.206Z,16.00
2023-04-13T15:58:17.669Z,15.90
2023-04-13T16:00:46.438Z,15.90
2023-04-13T16:03:14.604Z,15.90
2023-04-13T16:05:41.736Z,15.90
2023-04-13T16:08:09.896Z,15.90
2023-04-13T16:10:37.414Z,15.90
2023-04-13T16:13:08.021Z,15.90
2023-04-13T16:15:37.700Z,15.90
2023-04-13T16:18:05.014Z,15.90
2023-04-13T16:20:32.389Z,15.90
2023-04-13T16:23:02.567Z,15.90
2023-04-13T16:25:30.817Z,15.90
2023-04-13T16:34:26.139Z,15.90
2023-04-13T16:36:53.810Z,15.90
2023-04-13T16:39:21.968Z,16.00
2023-04-13T16:41:49.646Z,16.00
2023-04-13T16:44:17.739Z,16.00
2023-04-13T16:46:44.674Z,16.00
2023-04-13T16:49:11.654Z,16.00
2023-04-13T16:51:38.631Z,16.00
2023-04-13T16:54:06.626Z,16.00
2023-04-13T16:56:33.594Z,15.90
2023-04-13T16:59:01.379Z,15.90
2023-04-13T17:01:29.581Z,15.90
2023-04-13T17:03:58.364Z,15.80
2023-04-13T17:06:26.769Z,15.80
2023-04-13T17:09:00.573Z,15.80
2023-04-13T17:11:27.515Z,15.80
2023-04-13T17:13:54.313Z,15.80
2023-04-13T17:16:21.572Z,15.80
2023-04-13T17:18:48.510Z,15.80
2023-04-13T17:21:15.330Z,15.80
2023-04-13T17:23:43.574Z,15.80
2023-04-13T17:26:12.691Z,15.80
2023-04-13T17:28:39.803Z,15.80
2023-04-13T17:31:10.838Z,15.80
2023-04-13T17:33:38.184Z,15.70
2023-04-13T17:36:05.098Z,15.80
2023-04-13T17:38:31.897Z,15.80
2023-04-13T17:40:58.897Z,15.80
2023-04-13T17:43:27.324Z,15.70
2023-04-13T17:45:54.215Z,15.70
2023-04-13T17:48:23.975Z,15.70
2023-04-13T17:50:51.807Z,15.70
2023-04-13T17:53:18.652Z,15.70
2023-04-13T17:55:45.610Z,15.70
2023-04-13T17:58:12.867Z,15.60
2023-04-13T18:00:39.938Z,15.60
2023-04-13T18:03:09.592Z,15.60
2023-04-13T18:05:36.736Z,15.60
2023-04-13T18:08:03.797Z,15.50
2023-04-13T18:10:31.541Z,15.50
2023-04-13T18:13:01.347Z,15.50
2023-04-13T18:15:29.647Z,15.50
2023-04-13T18:17:56.544Z,15.50
2023-04-13T18:20:23.517Z,15.50
2023-04-13T18:22:51.747Z,15.50
2023-04-13T18:25:20.168Z,15.40
2023-04-13T18:27:47.466Z,15.40
2023-04-13T18:30:16.643Z,15.40
2023-04-13T18:32:43.499Z,15.40
2023-04-13T18:35:12.546Z,15.40
2023-04-13T18:37:39.620Z,15.30
2023-04-13T18:40:07.443Z,15.30
2023-04-13T18:42:34.502Z,15.20
2023-04-13T18:45:02.039Z,15.20
2023-04-13T18:47:28.937Z,15.10
2023-04-13T18:49:57.624Z,14.90
2023-04-13T18:52:26.048Z,14.70
2023-04-13T18:54:53.345Z,14.30
2023-04-13T18:57:20.256Z,14.10
2023-04-13T18:59:47.135Z,14.00
2023-04-13T19:02:16.851Z,13.80
2023-04-13T19:04:44.100Z,13.60
2023-04-13T19:07:11.056Z,13.60
2023-04-13T19:09:38.673Z,13.50
2023-04-13T19:12:06.774Z,13.60
2023-04-13T19:14:35.130Z,13.50
2023-04-13T19:17:03.242Z,13.50
2023-04-13T19:19:30.054Z,13.50
2023-04-13T19:21:58.397Z,13.50
2023-04-13T19:24:25.333Z,13.50
2023-04-13T19:26:52.185Z,13.50
2023-04-13T19:29:22.157Z,13.50
2023-04-13T19:31:50.275Z,13.50
2023-04-13T19:34:17.540Z,13.50
2023-04-13T19:36:47.005Z,13.50
2023-04-13T19:39:14.931Z,13.40
2023-04-13T19:41:42.025Z,13.40
2023-04-13T19:44:09.207Z,13.40
2023-04-13T19:46:36.475Z,13.30
2023-04-13T19:49:04.191Z,13.30
2023-04-13T19:51:32.986Z,13.30
2023-04-13T19:54:03.277Z,13.30
2023-04-13T19:56:36.653Z,13.30
2023-04-13T19:59:05.242Z,13.20
2023-04-13T20:01:33.960Z,13.30
2023-04-13T20:04:03.779Z,13.20
2023-04-13T20:06:33.522Z,13.20
2023-04-13T20:09:13.990Z,13.20
2023-04-13T20:11:44.134Z,13.20
2023-04-13T20:14:12.653Z,13.10
2023-04-13T20:16:39.558Z,13.10
2023-04-13T20:19:09.504Z,13.10
2023-04-13T20:21:36.812Z,13.10
2023-04-13T20:24:04.579Z,13.00
2023-04-13T20:26:33.021Z,13.00
2023-04-13T20:29:01.810Z,12.90
2023-04-13T20:31:30.777Z,12.90
2023-04-13T20:33:58.411Z,12.90
2023-04-13T20:36:25.794Z,12.80
2023-04-13T20:38:53.013Z,12.70
2023-04-13T20:41:22.012Z,12.80
2023-04-13T20:43:50.957Z,12.70
2023-04-13T20:46:17.865Z,12.70
2023-04-13T20:51:17.002Z,12.70
2023-04-13T20:53:44.084Z,12.60
2023-04-13T20:56:11.566Z,12.60
2023-04-13T20:58:38.752Z,12.60
2023-04-13T21:01:05.814Z,12.60
2023-04-13T21:03:33.167Z,12.50
2023-04-13T21:06:01.282Z,12.50
2023-04-13T21:08:28.214Z,12.40
2023-04-13T21:10:55.046Z,12.30
2023-04-13T21:13:22.291Z,12.30
2023-04-13T21:15:49.091Z,12.20
2023-04-13T21:18:16.120Z,12.20
2023-04-13T21:20:43.870Z,12.20
2023-04-13T21:23:12.035Z,12.10
2023-04-13T21:25:38.952Z,12.10
2023-04-13T21:28:05.837Z,12.10
2023-04-13T21:30:32.865Z,12.00
2023-04-13T21:32:59.755Z,11.90
2023-04-13T21:35:26.698Z,11.90
2023-04-13T21:37:53.478Z,11.90
2023-04-13T21:40:24.245Z,11.80
2023-04-13T21:42:51.242Z,11.80
2023-04-13T21:45:18.114Z,11.70
2023-04-13T21:47:47.174Z,11.70
2023-04-13T21:50:15.978Z,11.60
2023-04-13T21:52:42.834Z,11.60
2023-04-13T21:55:14.177Z,11.50
2023-04-13T21:57:43.358Z,11.40
2023-04-13T22:00:13.293Z,11.40
2023-04-13T22:02:42.096Z,11.40
2023-04-13T22:05:11.277Z,11.20
2023-04-13T22:07:44.424Z,11.20
2023-04-13T22:10:11.676Z,11.10
2023-04-13T22:12:38.715Z,11.00
2023-04-13T22:15:06.415Z,11.00
2023-04-13T22:17:33.692Z,10.90
2023-04-13T22:20:01.160Z,10.90
2023-04-13T22:22:27.973Z,10.80
2023-04-13T22:24:55.046Z,10.80
2023-04-13T22:27:22.278Z,10.80
2023-04-13T22:29:49.511Z,10.70
2023-04-13T22:32:16.810Z,10.70
2023-04-13T22:34:45.441Z,10.70
2023-04-13T22:37:15.161Z,10.60
2023-04-13T22:39:44.974Z,10.60
2023-04-13T22:42:13.075Z,10.60
2023-04-13T22:44:40.906Z,10.60
2023-04-13T22:47:08.729Z,10.50
2023-04-13T22:49:36.640Z,10.40
2023-04-13T22:52:03.617Z,10.40
2023-04-13T22:54:31.678Z,10.30
2023-04-13T22:57:02.832Z,10.30
2023-04-13T22:59:31.544Z,10.30
2023-04-13T23:01:59.441Z,10.30
2023-04-13T23:04:27.593Z,10.20
2023-04-13T23:06:54.473Z,10.20
2023-04-13T23:09:21.726Z,10.10
2023-04-13T23:11:51.086Z,10.00
2023-04-13T23:14:18.799Z,10.00
2023-04-13T23:16:48.335Z,10.00
2023-04-13T23:19:17.809Z,10.00
2023-04-13T23:21:45.870Z,10.00
2023-04-13T23:24:13.469Z,10.00
2023-04-13T23:26:43.155Z,10.00
2023-04-13T23:29:09.965Z,10.00
2023-04-13T23:31:36.903Z,10.00
2023-04-13T23:34:03.777Z,10.00
2023-04-13T23:36:34.175Z,10.00
2023-04-13T23:39:04.000Z,10.00
2023-04-13T23:41:30.960Z,10.00
2023-04-13T23:43:57.970Z,10.00
2023-04-13T23:46:25.118Z,10.00
2023-04-13T23:48:51.896Z,10.00
2023-04-13T23:51:18.693Z,10.00
2023-04-13T23:53:45.436Z,9.90
2023-04-13T23:56:13.318Z,9.90
2023-04-13T23:58:40.134Z,9.80
